Time;durP1;ratioP1;P1;durP2;ratioP2;P2;SDS_P1;SDS_P2;PMS_P1;PMS_P2;Temp;Humidity;BMP_temperature;BMP_pressure;BME280_temperature;BME280_humidity;BME280_pressure;Samples;Min_cycle;Max_cycle;Signal;HPM_P1;HPM_P2
2023/03/24 00:00:14;;;;;;;6.97;1.90;;;;;;;;;;5111041;28;20271;-75
2023/03/24 00:02:42;;;;;;;13.37;2.23;;;;;;;;;;5111272;28;20198;-76
2023/03/24 00:05:12;;;;;;;12.43;2.00;;;;;;;;;;5111362;28;20199;-75
2023/03/24 00:07:40;;;;;;;8.70;1.70;;;;;;;;;;5110711;28;20251;-75
2023/03/24 00:10:09;;;;;;;12.40;2.30;;;;;;;;;;5110779;28;20202;-75
2023/03/24 00:12:37;;;;;;;13.40;2.40;;;;;;;;;;5113518;28;20198;-76
2023/03/24 00:15:05;;;;;;;7.37;2.23;;;;;;;;;;5114938;28;20198;-75
2023/03/24 00:17:34;;;;;;;10.60;2.83;;;;;;;;;;5114593;28;20559;-76
2023/03/24 00:20:06;;;;;;;17.37;3.70;;;;;;;;;;5114371;28;20266;-77
2023/03/24 00:22:41;;;;;;;14.93;4.23;;;;;;;;;;5114139;28;20688;-76
2023/03/24 00:25:08;;;;;;;16.37;4.40;;;;;;;;;;5114306;28;20204;-76
2023/03/24 00:27:36;;;;;;;16.53;5.00;;;;;;;;;;5115157;28;20276;-75
2023/03/24 00:30:04;;;;;;;16.50;4.73;;;;;;;;;;5114236;28;20247;-75
2023/03/24 00:32:31;;;;;;;17.97;4.30;;;;;;;;;;5114080;28;20225;-75
2023/03/24 00:34:59;;;;;;;16.10;4.17;;;;;;;;;;5114307;28;20669;-75
2023/03/24 00:37:26;;;;;;;16.37;3.13;;;;;;;;;;5113968;28;20228;-76
2023/03/24 00:39:55;;;;;;;16.30;2.87;;;;;;;;;;5114455;28;20278;-75
2023/03/24 00:42:23;;;;;;;13.03;2.80;;;;;;;;;;5114476;28;20250;-75
2023/03/24 00:44:52;;;;;;;14.43;2.73;;;;;;;;;;5114159;28;20201;-75
2023/03/24 00:47:24;;;;;;;11.77;2.57;;;;;;;;;;5113856;28;20229;-75
2023/03/24 00:49:53;;;;;;;11.93;2.03;;;;;;;;;;5114256;28;20193;-76
2023/03/24 00:52:21;;;;;;;10.67;2.10;;;;;;;;;;5113619;28;20194;-76
2023/03/24 00:54:49;;;;;;;9.80;2.47;;;;;;;;;;5113869;28;20194;-76
2023/03/24 00:57:20;;;;;;;12.57;2.47;;;;;;;;;;5112706;28;20208;-76
2023/03/24 00:59:48;;;;;;;18.53;2.83;;;;;;;;;;5113634;28;20723;-75
2023/03/24 01:02:17;;;;;;;14.73;2.70;;;;;;;;;;5113882;28;20658;-76
2023/03/24 01:04:46;;;;;;;11.47;2.20;;;;;;;;;;5113651;28;20561;-76
2023/03/24 01:07:17;;;;;;;16.03;2.60;;;;;;;;;;5113606;28;20225;-75
2023/03/24 01:09:45;;;;;;;13.47;2.13;;;;;;;;;;5113744;28;20194;-76
2023/03/24 01:12:12;;;;;;;14.03;2.50;;;;;;;;;;5113257;28;20845;-75
2023/03/24 01:14:41;;;;;;;20.07;2.50;;;;;;;;;;5113387;28;20670;-76
2023/03/24 01:17:08;;;;;;;17.10;2.47;;;;;;;;;;5113583;27;20288;-76
2023/03/24 01:19:36;;;;;;;18.23;2.70;;;;;;;;;;5113513;28;20278;-77
2023/03/24 01:22:03;;;;;;;13.10;2.23;;;;;;;;;;5112740;28;20639;-76
2023/03/24 01:24:30;;;;;;;11.87;2.07;;;;;;;;;;5113325;28;20202;-76
2023/03/24 01:26:58;;;;;;;11.97;2.40;;;;;;;;;;5113424;28;20247;-75
2023/03/24 01:29:25;;;;;;;18.73;2.90;;;;;;;;;;5113114;28;20204;-75
2023/03/24 01:31:54;;;;;;;17.20;2.90;;;;;;;;;;5113763;28;20243;-76
2023/03/24 01:34:21;;;;;;;15.87;2.13;;;;;;;;;;5112917;28;20213;-75
2023/03/24 01:36:48;;;;;;;15.87;2.73;;;;;;;;;;5112866;28;20258;-76
2023/03/24 01:39:16;;;;;;;12.00;2.57;;;;;;;;;;5112774;28;20282;-76
2023/03/24 01:41:43;;;;;;;17.33;3.20;;;;;;;;;;5113061;28;20201;-76
2023/03/24 01:44:30;;;;;;;15.20;2.43;;;;;;;;;;5112964;28;20214;-74
2023/03/24 01:46:59;;;;;;;17.53;3.17;;;;;;;;;;5112583;28;20232;-77
2023/03/24 01:49:29;;;;;;;15.17;2.87;;;;;;;;;;5112577;28;20227;-73
2023/03/24 01:51:57;;;;;;;17.27;2.53;;;;;;;;;;5112909;28;20204;-76
2023/03/24 01:54:26;;;;;;;18.33;2.30;;;;;;;;;;5112771;28;20201;-75
2023/03/24 01:56:55;;;;;;;16.40;2.67;;;;;;;;;;5112938;28;20276;-75
2023/03/24 01:59:24;;;;;;;18.67;3.10;;;;;;;;;;5112398;28;20732;-75
2023/03/24 02:01:53;;;;;;;16.73;2.53;;;;;;;;;;5113108;28;20204;-76
2023/03/24 02:04:21;;;;;;;17.00;2.70;;;;;;;;;;5112465;28;20194;-76
2023/03/24 02:06:49;;;;;;;13.70;2.43;;;;;;;;;;5112287;28;20190;-76
2023/03/24 02:09:16;;;;;;;17.47;2.57;;;;;;;;;;5112417;28;20255;-77
2023/03/24 02:11:44;;;;;;;18.70;2.77;;;;;;;;;;5112661;28;20197;-76
2023/03/24 02:14:12;;;;;;;19.97;3.70;;;;;;;;;;5112579;28;20284;-76
2023/03/24 02:17:05;;;;;;;14.43;2.43;;;;;;;;;;5112331;28;20194;-76
2023/03/24 02:19:47;;;;;;;18.00;2.73;;;;;;;;;;5111322;28;20640;-76
2023/03/24 02:22:33;;;;;;;23.70;2.67;;;;;;;;;;5109167;28;20246;-76
2023/03/24 02:25:20;;;;;;;18.60;2.73;;;;;;;;;;5112768;28;20247;-76
2023/03/24 02:28:05;;;;;;;18.50;3.03;;;;;;;;;;5112041;28;20194;-75
2023/03/24 02:31:02;;;;;;;15.80;2.37;;;;;;;;;;5112473;28;20674;-75
2023/03/24 02:33:50;;;;;;;18.97;2.80;;;;;;;;;;5048386;28;20200;-75
2023/03/24 02:36:27;;;;;;;18.77;2.90;;;;;;;;;;5048734;28;20273;-75
2023/03/24 02:39:12;;;;;;;17.73;2.77;;;;;;;;;;5049340;28;20199;-75
2023/03/24 02:41:46;;;;;;;24.43;3.10;;;;;;;;;;5048991;28;20196;-76
2023/03/24 02:44:17;;;;;;;16.07;2.37;;;;;;;;;;5049030;28;20655;-74
2023/03/24 02:46:46;;;;;;;15.17;2.83;;;;;;;;;;5048336;28;20231;-76
2023/03/24 02:49:20;;;;;;;22.83;3.20;;;;;;;;;;5048874;28;20200;-75
2023/03/24 02:51:50;;;;;;;27.47;3.07;;;;;;;;;;5049363;28;20769;-76
2023/03/24 02:54:20;;;;;;;20.47;2.90;;;;;;;;;;5049236;28;20192;-76
2023/03/24 02:56:53;;;;;;;21.70;3.10;;;;;;;;;;5048328;28;20198;-75
2023/03/24 02:59:22;;;;;;;20.27;2.90;;;;;;;;;;5048586;28;20248;-76
2023/03/24 03:01:56;;;;;;;16.03;2.87;;;;;;;;;;5048036;28;20261;-77
2023/03/24 03:04:26;;;;;;;22.67;2.90;;;;;;;;;;5048871;28;20231;-76
2023/03/24 03:06:56;;;;;;;19.53;3.10;;;;;;;;;;5059532;28;20224;-76
2023/03/24 03:09:24;;;;;;;18.97;2.20;;;;;;;;;;5111417;28;20196;-76
2023/03/24 03:11:55;;;;;;;21.37;3.20;;;;;;;;;;5111467;28;20257;-75
2023/03/24 03:14:24;;;;;;;19.87;2.73;;;;;;;;;;5091088;28;20288;-75
2023/03/24 03:16:53;;;;;;;25.20;3.43;;;;;;;;;;5090990;28;20624;-75
2023/03/24 03:19:21;;;;;;;18.60;2.60;;;;;;;;;;5091035;28;20685;-75
2023/03/24 03:21:49;;;;;;;20.77;3.37;;;;;;;;;;5095819;28;20625;-75
2023/03/24 03:24:25;;;;;;;21.13;2.87;;;;;;;;;;5097432;28;20202;-74
2023/03/24 03:26:56;;;;;;;22.37;2.83;;;;;;;;;;5090875;28;20194;-76
2023/03/24 03:29:26;;;;;;;18.30;3.00;;;;;;;;;;5091166;28;20217;-76
2023/03/24 03:31:57;;;;;;;25.80;3.70;;;;;;;;;;5090836;28;20663;-76
2023/03/24 03:34:28;;;;;;;27.70;3.47;;;;;;;;;;5090908;28;20201;-75
2023/03/24 03:36:57;;;;;;;21.20;3.43;;;;;;;;;;5091148;28;20617;-76
2023/03/24 03:39:26;;;;;;;19.33;2.87;;;;;;;;;;5090847;28;20240;-76
2023/03/24 03:41:55;;;;;;;20.27;2.87;;;;;;;;;;5090895;28;20326;-76
2023/03/24 03:44:23;;;;;;;26.87;3.63;;;;;;;;;;5091038;28;20195;-75
2023/03/24 03:46:50;;;;;;;22.23;2.40;;;;;;;;;;5093134;28;20230;-75
2023/03/24 03:49:17;;;;;;;23.40;2.97;;;;;;;;;;5094663;28;20194;-75
2023/03/24 03:51:45;;;;;;;25.73;3.03;;;;;;;;;;5095231;28;20260;-76
2023/03/24 03:54:14;;;;;;;19.77;3.23;;;;;;;;;;5094684;28;20255;-76
2023/03/24 03:56:42;;;;;;;19.43;3.00;;;;;;;;;;5094445;28;20285;-76
2023/03/24 03:59:23;;;;;;;22.33;3.00;;;;;;;;;;5094691;28;20198;-75
2023/03/24 04:01:50;;;;;;;21.97;3.47;;;;;;;;;;5094439;28;20288;-76
2023/03/24 04:04:32;;;;;;;23.00;3.43;;;;;;;;;;5094283;28;20613;-76
2023/03/24 04:07:07;;;;;;;23.20;2.93;;;;;;;;;;5094714;28;20198;-76
2023/03/24 04:09:37;;;;;;;16.70;2.87;;;;;;;;;;5094793;28;20202;-76
2023/03/24 04:12:11;;;;;;;27.23;3.00;;;;;;;;;;5095852;28;20230;-75
2023/03/24 04:14:52;;;;;;;23.60;2.87;;;;;;;;;;5113964;28;20231;-74
2023/03/24 04:17:25;;;;;;;20.20;2.93;;;;;;;;;;5114777;28;20197;-76
2023/03/24 04:20:00;;;;;;;15.97;2.73;;;;;;;;;;5114288;28;20609;-75
2023/03/24 04:22:31;;;;;;;22.97;3.20;;;;;;;;;;5114759;28;20201;-75
2023/03/24 04:25:00;;;;;;;24.30;3.13;;;;;;;;;;5114117;28;20724;-76
2023/03/24 04:27:37;;;;;;;24.43;3.13;;;;;;;;;;5114771;28;20285;-75
2023/03/24 04:30:10;;;;;;;21.97;3.27;;;;;;;;;;5114190;28;20194;-76
2023/03/24 04:32:42;;;;;;;25.93;3.90;;;;;;;;;;5114455;28;20198;-75
2023/03/24 04:35:11;;;;;;;27.57;3.50;;;;;;;;;;5114045;27;20301;-75
2023/03/24 04:37:39;;;;;;;22.13;3.10;;;;;;;;;;5114334;28;20782;-75
2023/03/24 04:40:09;;;;;;;26.80;3.30;;;;;;;;;;5114055;28;20225;-76
2023/03/24 04:42:38;;;;;;;23.20;3.37;;;;;;;;;;5114252;28;20197;-76
2023/03/24 04:45:08;;;;;;;26.00;3.30;;;;;;;;;;5113933;28;20226;-76
2023/03/24 04:47:41;;;;;;;22.10;3.20;;;;;;;;;;5114257;28;20729;-76
2023/03/24 04:50:10;;;;;;;24.17;2.80;;;;;;;;;;5114017;28;20212;-76
2023/03/24 04:52:37;;;;;;;29.80;5.03;;;;;;;;;;5114101;28;20190;-75
2023/03/24 04:55:06;;;;;;;26.53;3.83;;;;;;;;;;5114049;28;20749;-76
2023/03/24 04:57:33;;;;;;;27.33;3.87;;;;;;;;;;5112778;28;20217;-76
2023/03/24 05:00:00;;;;;;;22.60;3.73;;;;;;;;;;5113805;28;20284;-76
2023/03/24 05:02:31;;;;;;;22.50;3.53;;;;;;;;;;5113878;28;20569;-76
2023/03/24 05:04:58;;;;;;;25.00;3.93;;;;;;;;;;5114064;28;20194;-75
2023/03/24 05:07:26;;;;;;;28.47;4.40;;;;;;;;;;5113969;28;20217;-76
2023/03/24 05:09:54;;;;;;;27.77;4.03;;;;;;;;;;5113671;28;20194;-76
2023/03/24 05:12:21;;;;;;;28.47;3.40;;;;;;;;;;5113481;28;20578;-75
2023/03/24 05:14:48;;;;;;;17.50;2.80;;;;;;;;;;5113082;28;20232;-76
2023/03/24 05:17:15;;;;;;;31.67;3.50;;;;;;;;;;5113590;28;20289;-76
2023/03/24 05:19:44;;;;;;;25.03;3.43;;;;;;;;;;5113823;28;20289;-76
2023/03/24 05:22:11;;;;;;;25.97;3.40;;;;;;;;;;5113051;28;20320;-76
2023/03/24 05:24:39;;;;;;;25.83;4.27;;;;;;;;;;5113486;28;20227;-76
2023/03/24 05:27:06;;;;;;;26.40;3.97;;;;;;;;;;5112929;28;20296;-75
2023/03/24 05:29:34;;;;;;;26.60;3.97;;;;;;;;;;5113197;28;20281;-76
2023/03/24 05:32:01;;;;;;;32.57;4.27;;;;;;;;;;5113045;27;20208;-76
2023/03/24 05:34:28;;;;;;;18.23;3.30;;;;;;;;;;5113325;28;20219;-76
2023/03/24 05:36:57;;;;;;;26.67;3.53;;;;;;;;;;5113137;28;20225;-75
2023/03/24 05:39:24;;;;;;;32.40;4.23;;;;;;;;;;5113117;28;20289;-75
2023/03/24 05:41:52;;;;;;;22.73;3.90;;;;;;;;;;5112914;28;20236;-75
2023/03/24 05:44:19;;;;;;;25.27;3.37;;;;;;;;;;5113194;28;20193;-76
2023/03/24 05:46:46;;;;;;;28.87;4.20;;;;;;;;;;5112658;28;20226;-76
2023/03/24 05:49:13;;;;;;;23.50;3.33;;;;;;;;;;5112783;28;20276;-76
2023/03/24 05:51:41;;;;;;;27.27;4.07;;;;;;;;;;5112696;28;20198;-76
2023/03/24 05:54:09;;;;;;;27.10;3.90;;;;;;;;;;5112836;28;20733;-76
2023/03/24 05:56:36;;;;;;;27.83;4.47;;;;;;;;;;5112752;28;20198;-76
2023/03/24 05:59:04;;;;;;;26.00;3.70;;;;;;;;;;5112838;27;20229;-76
2023/03/24 06:01:31;;;;;;;26.00;3.43;;;;;;;;;;5112605;28;20316;-76
2023/03/24 06:03:58;;;;;;;27.00;4.27;;;;;;;;;;5112563;28;20265;-76
2023/03/24 06:06:27;;;;;;;24.83;3.33;;;;;;;;;;5112786;28;20205;-76
2023/03/24 06:08:54;;;;;;;22.70;3.90;;;;;;;;;;5112097;28;20229;-76
2023/03/24 06:11:23;;;;;;;24.67;3.53;;;;;;;;;;5111918;28;20204;-73
2023/03/24 06:13:50;;;;;;;28.67;4.50;;;;;;;;;;5112115;28;20288;-76
2023/03/24 06:16:22;;;;;;;24.33;3.27;;;;;;;;;;5112919;28;20252;-77
2023/03/24 06:18:51;;;;;;;24.43;3.87;;;;;;;;;;5112356;28;20719;-77
2023/03/24 06:21:18;;;;;;;26.53;4.17;;;;;;;;;;5112314;28;20228;-76
2023/03/24 06:23:46;;;;;;;28.70;4.10;;;;;;;;;;5112350;28;20599;-76
2023/03/24 06:26:13;;;;;;;24.87;3.50;;;;;;;;;;5111652;28;20189;-77
2023/03/24 06:28:42;;;;;;;24.80;3.40;;;;;;;;;;5112071;27;20193;-77
2023/03/24 06:31:13;;;;;;;20.77;4.23;;;;;;;;;;5112061;28;20233;-77
2023/03/24 06:33:41;;;;;;;29.10;4.30;;;;;;;;;;5111753;28;20194;-76
2023/03/24 06:36:09;;;;;;;20.90;3.40;;;;;;;;;;5112111;28;20198;-76
2023/03/24 06:38:36;;;;;;;26.90;4.83;;;;;;;;;;5111865;28;20611;-76
2023/03/24 06:41:04;;;;;;;24.70;3.57;;;;;;;;;;5112000;28;20732;-77
2023/03/24 06:43:31;;;;;;;24.70;4.27;;;;;;;;;;5111500;28;20194;-76
2023/03/24 06:46:00;;;;;;;27.00;3.63;;;;;;;;;;5105256;28;20289;-76
2023/03/24 06:48:27;;;;;;;24.30;3.80;;;;;;;;;;5090806;28;20290;-76
2023/03/24 06:50:54;;;;;;;22.13;3.50;;;;;;;;;;5091092;28;20229;-77
2023/03/24 06:53:23;;;;;;;23.93;3.77;;;;;;;;;;5089712;28;20299;-77
2023/03/24 06:55:50;;;;;;;22.03;3.87;;;;;;;;;;5091532;28;20645;-77
2023/03/24 06:58:18;;;;;;;24.97;4.47;;;;;;;;;;5091255;28;20298;-76
2023/03/24 07:00:46;;;;;;;26.60;3.73;;;;;;;;;;5091903;28;20214;-77
2023/03/24 07:03:15;;;;;;;21.30;3.33;;;;;;;;;;5091206;28;20585;-76
2023/03/24 07:05:44;;;;;;;19.83;4.17;;;;;;;;;;5091642;28;20198;-75
2023/03/24 07:08:12;;;;;;;21.40;3.27;;;;;;;;;;5101434;28;20202;-77
2023/03/24 07:10:40;;;;;;;20.30;3.97;;;;;;;;;;5098649;28;20198;-76
2023/03/24 07:13:07;;;;;;;25.67;3.63;;;;;;;;;;5101843;28;20202;-76
2023/03/24 07:15:35;;;;;;;25.30;3.77;;;;;;;;;;5111342;28;20213;-76
2023/03/24 07:18:02;;;;;;;20.93;3.93;;;;;;;;;;5090933;28;20198;-75
2023/03/24 07:20:30;;;;;;;24.53;4.07;;;;;;;;;;5091786;28;20289;-77
2023/03/24 07:22:58;;;;;;;19.70;4.10;;;;;;;;;;5094737;28;20337;-73
2023/03/24 07:25:26;;;;;;;22.13;3.83;;;;;;;;;;5095270;28;20298;-76
2023/03/24 07:27:54;;;;;;;24.47;3.83;;;;;;;;;;5094975;28;20229;-75
2023/03/24 07:30:21;;;;;;;24.70;3.60;;;;;;;;;;5095869;28;20194;-75
2023/03/24 07:32:49;;;;;;;22.90;3.87;;;;;;;;;;5114606;28;20320;-76
2023/03/24 07:35:16;;;;;;;23.13;3.77;;;;;;;;;;5115139;28;20232;-76
2023/03/24 07:37:45;;;;;;;22.73;3.40;;;;;;;;;;5114608;28;20198;-75
2023/03/24 07:40:14;;;;;;;17.83;3.47;;;;;;;;;;5110365;28;20707;-76
2023/03/24 07:42:42;;;;;;;21.53;4.50;;;;;;;;;;5102671;28;20226;-76
2023/03/24 07:45:10;;;;;;;26.43;3.67;;;;;;;;;;5094668;28;20252;-76
2023/03/24 07:47:38;;;;;;;26.03;4.07;;;;;;;;;;5094099;28;20234;-76
2023/03/24 07:50:09;;;;;;;21.37;3.90;;;;;;;;;;5101727;28;20201;-76
2023/03/24 07:52:36;;;;;;;21.23;3.97;;;;;;;;;;5114150;28;20202;-76
2023/03/24 07:55:05;;;;;;;21.43;3.83;;;;;;;;;;5110174;28;20687;-76
2023/03/24 07:57:34;;;;;;;31.07;4.37;;;;;;;;;;5109219;28;20728;-76
2023/03/24 08:00:01;;;;;;;19.43;4.13;;;;;;;;;;5094362;28;20198;-76
2023/03/24 08:02:29;;;;;;;24.67;5.17;;;;;;;;;;5094212;28;20317;-76
2023/03/24 08:04:56;;;;;;;27.77;4.07;;;;;;;;;;5094412;28;20194;-77
2023/03/24 08:07:23;;;;;;;23.23;3.80;;;;;;;;;;5093754;28;20751;-76
2023/03/24 08:09:50;;;;;;;20.37;3.93;;;;;;;;;;5093890;28;20655;-76
2023/03/24 08:12:19;;;;;;;18.98;3.50;;;;;;;;;;5097348;28;20225;-76
2023/03/24 08:14:46;;;;;;;27.98;4.72;;;;;;;;;;5114889;28;20266;-76
2023/03/24 08:17:13;;;;;;;20.05;4.07;;;;;;;;;;5114316;28;20201;-76
2023/03/24 08:19:41;;;;;;;23.55;4.13;;;;;;;;;;5114691;28;20284;-76
2023/03/24 08:22:08;;;;;;;22.15;3.85;;;;;;;;;;5114116;28;20321;-76
2023/03/24 08:24:36;;;;;;;22.05;4.57;;;;;;;;;;5114583;28;20292;-76
2023/03/24 08:27:05;;;;;;;18.58;3.78;;;;;;;;;;5114561;28;20186;-75
2023/03/24 08:29:34;;;;;;;18.65;3.47;;;;;;;;;;5114268;28;20198;-76
2023/03/24 08:32:01;;;;;;;23.60;4.90;;;;;;;;;;5112909;28;20200;-76
2023/03/24 08:34:29;;;;;;;16.05;3.72;;;;;;;;;;5114118;28;20201;-76
2023/03/24 08:36:56;;;;;;;18.85;4.55;;;;;;;;;;5113747;28;20750;-77
2023/03/24 08:39:24;;;;;;;18.65;4.13;;;;;;;;;;5114147;28;20281;-76
2023/03/24 08:41:53;;;;;;;20.40;4.40;;;;;;;;;;5113683;28;20735;-76
2023/03/24 08:44:21;;;;;;;16.45;3.90;;;;;;;;;;5113679;28;20196;-76
2023/03/24 08:46:49;;;;;;;16.77;3.47;;;;;;;;;;5113644;28;20320;-76
2023/03/24 08:49:17;;;;;;;18.60;3.78;;;;;;;;;;5113873;28;20301;-76
2023/03/24 08:51:45;;;;;;;18.92;3.75;;;;;;;;;;5114100;28;20190;-76
2023/03/24 08:54:12;;;;;;;19.52;3.92;;;;;;;;;;5113810;28;20690;-76
2023/03/24 08:56:39;;;;;;;16.00;3.17;;;;;;;;;;5113895;28;20198;-76
2023/03/24 08:59:07;;;;;;;16.05;3.47;;;;;;;;;;5113219;27;20219;-77
2023/03/24 09:01:35;;;;;;;17.83;3.28;;;;;;;;;;5113617;28;20321;-76
2023/03/24 09:04:04;;;;;;;16.52;3.55;;;;;;;;;;5113123;28;20241;-76
2023/03/24 09:06:32;;;;;;;18.70;3.38;;;;;;;;;;5113801;28;20217;-76
2023/03/24 09:08:59;;;;;;;16.15;3.88;;;;;;;;;;5113390;28;20666;-76
2023/03/24 09:11:26;;;;;;;18.60;3.70;;;;;;;;;;5113201;28;20628;-76
2023/03/24 09:13:54;;;;;;;15.60;2.83;;;;;;;;;;5109843;28;20281;-76
2023/03/24 09:16:22;;;;;;;16.63;3.55;;;;;;;;;;5100474;28;20300;-76
2023/03/24 09:18:49;;;;;;;12.20;3.03;;;;;;;;;;5112743;28;20192;-76
2023/03/24 09:21:18;;;;;;;17.00;3.50;;;;;;;;;;5113029;28;20217;-76
2023/03/24 09:23:45;;;;;;;20.08;3.17;;;;;;;;;;5110925;28;20225;-76
2023/03/24 09:26:12;;;;;;;21.08;3.60;;;;;;;;;;5104195;28;20205;-76
2023/03/24 09:28:39;;;;;;;18.40;3.40;;;;;;;;;;5092487;28;20285;-76
2023/03/24 09:31:07;;;;;;;17.83;3.80;;;;;;;;;;5093058;28;20199;-76
2023/03/24 09:33:34;;;;;;;19.17;3.40;;;;;;;;;;5092202;28;20202;-76
2023/03/24 09:36:02;;;;;;;15.30;3.05;;;;;;;;;;5092684;28;20222;-75
2023/03/24 09:38:33;;;;;;;18.73;3.08;;;;;;;;;;5092805;28;20226;-76
2023/03/24 09:41:01;;;;;;;15.80;3.20;;;;;;;;;;5092517;28;20225;-77
2023/03/24 09:43:32;;;;;;;14.13;3.03;;;;;;;;;;5102156;28;20218;-76
2023/03/24 09:46:01;;;;;;;15.65;2.92;;;;;;;;;;5112751;28;20221;-76
2023/03/24 09:48:32;;;;;;;14.93;2.50;;;;;;;;;;5111859;28;20198;-77
2023/03/24 09:51:01;;;;;;;19.13;3.83;;;;;;;;;;5112903;28;20285;-76
2023/03/24 09:53:31;;;;;;;16.77;3.40;;;;;;;;;;5112390;28;20292;-76
2023/03/24 09:56:01;;;;;;;12.93;3.22;;;;;;;;;;5112533;28;20628;-76
2023/03/24 09:58:30;;;;;;;16.15;3.22;;;;;;;;;;5111901;28;20709;-76
2023/03/24 10:00:57;;;;;;;18.23;3.47;;;;;;;;;;5112514;28;20218;-75
2023/03/24 10:03:24;;;;;;;18.77;3.17;;;;;;;;;;5112125;28;20253;-76
2023/03/24 10:05:55;;;;;;;13.73;2.63;;;;;;;;;;5103720;28;20213;-75
2023/03/24 10:08:27;;;;;;;9.52;2.35;;;;;;;;;;5099463;28;20232;-76
2023/03/24 10:10:58;;;;;;;17.35;2.88;;;;;;;;;;5091701;28;20241;-76
2023/03/24 10:13:30;;;;;;;12.40;2.90;;;;;;;;;;5103411;28;20298;-76
2023/03/24 10:16:05;;;;;;;13.07;2.58;;;;;;;;;;5111098;28;20626;-76
2023/03/24 10:18:35;;;;;;;11.02;2.25;;;;;;;;;;5090691;28;20196;-76
2023/03/24 10:21:06;;;;;;;13.57;2.22;;;;;;;;;;5091080;28;20245;-76
2023/03/24 10:23:37;;;;;;;8.23;2.20;;;;;;;;;;5101500;27;20226;-76
2023/03/24 10:26:09;;;;;;;7.95;2.10;;;;;;;;;;5101544;28;20285;-76
2023/03/24 10:28:41;;;;;;;9.15;1.55;;;;;;;;;;5111372;28;20665;-77
2023/03/24 10:31:11;;;;;;;11.38;1.73;;;;;;;;;;5110142;28;20186;-76
2023/03/24 10:33:41;;;;;;;8.25;1.80;;;;;;;;;;5111034;28;20236;-77
2023/03/24 10:36:10;;;;;;;6.88;1.45;;;;;;;;;;5110771;28;20223;-76
2023/03/24 10:38:37;;;;;;;6.47;1.67;;;;;;;;;;5110664;28;20228;-76
2023/03/24 10:41:05;;;;;;;5.90;1.30;;;;;;;;;;5111175;28;20669;-77
2023/03/24 10:43:32;;;;;;;7.65;1.65;;;;;;;;;;5110938;28;20317;-76
2023/03/24 10:46:03;;;;;;;7.82;2.08;;;;;;;;;;5094276;28;20228;-76
2023/03/24 10:48:41;;;;;;;10.63;1.77;;;;;;;;;;5111552;28;20548;-76
2023/03/24 10:51:14;;;;;;;7.57;2.20;;;;;;;;;;5110735;28;20194;-77
2023/03/24 10:53:41;;;;;;;7.25;1.73;;;;;;;;;;5110890;28;20686;-77
2023/03/24 10:56:09;;;;;;;7.78;1.92;;;;;;;;;;5110601;28;20189;-76
2023/03/24 10:58:38;;;;;;;8.65;1.90;;;;;;;;;;5110193;28;20895;-76
2023/03/24 11:01:08;;;;;;;9.85;1.85;;;;;;;;;;5122361;27;20367;-76
2023/03/24 11:03:37;;;;;;;8.82;1.80;;;;;;;;;;5113421;27;20312;-76
2023/03/24 11:06:05;;;;;;;7.05;2.13;;;;;;;;;;5110877;28;20216;-76
2023/03/24 11:08:34;;;;;;;8.23;1.73;;;;;;;;;;5110919;28;20201;-75
2023/03/24 11:11:02;;;;;;;11.00;2.53;;;;;;;;;;5108061;28;20200;-76
2023/03/24 11:13:31;;;;;;;10.60;1.95;;;;;;;;;;5110401;28;20236;-76
2023/03/24 11:16:05;;;;;;;10.90;2.15;;;;;;;;;;5110239;28;20240;-76
2023/03/24 11:18:34;;;;;;;9.30;1.73;;;;;;;;;;5111108;28;20284;-76
2023/03/24 11:21:03;;;;;;;8.95;1.63;;;;;;;;;;5110686;28;20739;-76
2023/03/24 11:23:31;;;;;;;7.82;1.95;;;;;;;;;;5110825;28;20308;-76
2023/03/24 11:26:07;;;;;;;12.25;2.40;;;;;;;;;;5110758;28;20701;-76
2023/03/24 11:28:37;;;;;;;10.98;2.00;;;;;;;;;;5110858;28;20243;-76
2023/03/24 11:31:07;;;;;;;12.23;2.17;;;;;;;;;;5108791;28;20221;-75
2023/03/24 11:33:41;;;;;;;12.48;2.22;;;;;;;;;;5110994;28;20216;-77
2023/03/24 11:36:29;;;;;;;10.40;2.10;;;;;;;;;;5108740;28;20277;-76
2023/03/24 11:39:00;;;;;;;13.27;2.30;;;;;;;;;;5109731;28;20202;-76
2023/03/24 11:41:28;;;;;;;13.50;2.65;;;;;;;;;;5110665;28;20266;-76
2023/03/24 11:44:08;;;;;;;12.63;2.10;;;;;;;;;;5110341;28;20218;-76
2023/03/24 11:46:36;;;;;;;7.15;1.80;;;;;;;;;;5107765;28;20248;-77
2023/03/24 11:49:05;;;;;;;9.17;2.17;;;;;;;;;;5108189;28;20318;-77
2023/03/24 11:51:35;;;;;;;7.80;1.60;;;;;;;;;;5110484;28;20723;-77
2023/03/24 11:54:04;;;;;;;12.23;2.35;;;;;;;;;;5107882;28;20190;-76
2023/03/24 11:56:35;;;;;;;8.05;2.10;;;;;;;;;;5110816;28;20289;-77
2023/03/24 11:59:05;;;;;;;10.15;1.90;;;;;;;;;;5107265;28;20232;-76
2023/03/24 12:01:35;;;;;;;9.07;1.80;;;;;;;;;;5110565;28;20685;-77
2023/03/24 12:04:20;;;;;;;8.43;1.70;;;;;;;;;;5107210;28;20218;-76
2023/03/24 12:06:52;;;;;;;11.77;1.90;;;;;;;;;;5109498;28;20190;-76
2023/03/24 12:09:23;;;;;;;10.32;2.05;;;;;;;;;;5114345;28;20272;-75
2023/03/24 12:11:56;;;;;;;8.25;2.13;;;;;;;;;;5111359;28;20209;-77
2023/03/24 12:14:27;;;;;;;12.75;2.70;;;;;;;;;;5112576;28;20206;-76
2023/03/24 12:16:59;;;;;;;10.70;1.98;;;;;;;;;;5114188;28;20197;-76
2023/03/24 12:19:36;;;;;;;10.18;2.15;;;;;;;;;;5114369;28;20206;-75
2023/03/24 12:22:08;;;;;;;8.57;1.70;;;;;;;;;;5114087;28;20270;-76
2023/03/24 12:24:43;;;;;;;11.88;2.00;;;;;;;;;;5113130;28;20741;-77
2023/03/24 12:27:17;;;;;;;6.18;1.48;;;;;;;;;;5112784;28;20225;-77
2023/03/24 12:29:52;;;;;;;8.35;1.80;;;;;;;;;;5113693;28;20204;-77
2023/03/24 12:32:24;;;;;;;11.82;2.35;;;;;;;;;;5114120;28;20570;-76
2023/03/24 12:35:06;;;;;;;11.55;2.38;;;;;;;;;;5113895;28;20266;-77
2023/03/24 12:37:39;;;;;;;13.60;2.90;;;;;;;;;;5111297;27;20742;-75
2023/03/24 12:40:19;;;;;;;7.90;2.13;;;;;;;;;;5113620;28;20201;-76
2023/03/24 12:42:47;;;;;;;10.43;2.35;;;;;;;;;;5113376;28;20274;-76
2023/03/24 12:45:25;;;;;;;10.77;2.25;;;;;;;;;;5111315;28;20198;-76
2023/03/24 12:48:07;;;;;;;8.00;1.98;;;;;;;;;;5119978;27;20225;-77
2023/03/24 12:50:38;;;;;;;11.13;2.40;;;;;;;;;;5107110;28;20193;-76
2023/03/24 12:53:15;;;;;;;8.80;2.70;;;;;;;;;;5114172;27;20214;-76
2023/03/24 12:55:44;;;;;;;12.77;2.47;;;;;;;;;;5109707;28;20302;-76
2023/03/24 12:58:13;;;;;;;9.05;1.90;;;;;;;;;;5114157;27;20293;-76
2023/03/24 13:00:43;;;;;;;8.43;1.92;;;;;;;;;;5112305;28;20293;-77
2023/03/24 13:03:12;;;;;;;10.23;2.00;;;;;;;;;;5112141;28;20304;-76
2023/03/24 13:05:42;;;;;;;11.50;1.77;;;;;;;;;;5096948;28;20624;-75
2023/03/24 13:08:15;;;;;;;6.53;1.38;;;;;;;;;;5113082;28;20578;-75
2023/03/24 13:10:46;;;;;;;2.42;0.55;;;;;;;;;;5113283;27;20615;-77
2023/03/24 13:13:16;;;;;;;2.90;0.50;;;;;;;;;;5111091;28;20210;-76
2023/03/24 13:15:46;;;;;;;7.47;1.35;;;;;;;;;;5112901;27;20235;-76
2023/03/24 13:18:21;;;;;;;9.05;1.67;;;;;;;;;;5115012;27;20189;-77
2023/03/24 13:20:51;;;;;;;10.70;1.90;;;;;;;;;;5119296;27;20205;-76
2023/03/24 13:23:28;;;;;;;8.65;1.73;;;;;;;;;;5112184;28;20247;-76
2023/03/24 13:26:01;;;;;;;8.30;1.63;;;;;;;;;;5112979;27;20229;-76
2023/03/24 13:28:30;;;;;;;8.23;2.03;;;;;;;;;;5113178;27;20197;-76
2023/03/24 13:30:58;;;;;;;11.65;2.30;;;;;;;;;;5110013;28;20666;-76
2023/03/24 13:33:26;;;;;;;9.32;1.85;;;;;;;;;;5112521;28;20285;-76
2023/03/24 13:35:59;;;;;;;12.13;2.65;;;;;;;;;;5112851;28;20202;-77
2023/03/24 13:38:33;;;;;;;11.25;2.55;;;;;;;;;;5109408;27;20242;-76
2023/03/24 13:41:04;;;;;;;10.00;2.22;;;;;;;;;;5110666;28;20281;-77
2023/03/24 13:43:32;;;;;;;10.70;1.88;;;;;;;;;;5101808;27;20706;-76
2023/03/24 13:46:00;;;;;;;11.00;2.03;;;;;;;;;;5096015;28;20798;-76
2023/03/24 13:48:30;;;;;;;12.63;2.00;;;;;;;;;;5101883;28;20201;-75
2023/03/24 13:50:59;;;;;;;13.55;2.10;;;;;;;;;;5104495;28;20255;-75
2023/03/24 13:53:31;;;;;;;9.60;1.70;;;;;;;;;;5104911;28;20945;-76
2023/03/24 13:56:00;;;;;;;7.22;1.20;;;;;;;;;;5112056;28;20201;-76
2023/03/24 13:58:28;;;;;;;8.63;1.75;;;;;;;;;;5112115;28;20193;-76
2023/03/24 14:01:05;;;;;;;7.67;1.57;;;;;;;;;;5112970;27;20233;-75
2023/03/24 14:03:35;;;;;;;10.40;2.07;;;;;;;;;;5108694;28;20665;-76
2023/03/24 14:06:04;;;;;;;8.50;1.93;;;;;;;;;;5107326;28;20194;-77
2023/03/24 14:08:55;;;;;;;5.95;1.65;;;;;;;;;;5096818;28;20206;-77
2023/03/24 14:11:41;;;;;;;9.10;1.83;;;;;;;;;;5113991;27;20221;-76
2023/03/24 14:14:17;;;;;;;9.88;1.80;;;;;;;;;;5111949;28;20201;-77
2023/03/24 14:16:45;;;;;;;10.88;2.08;;;;;;;;;;5109351;27;20243;-76
2023/03/24 14:19:20;;;;;;;13.25;2.03;;;;;;;;;;5111216;28;20689;-76
2023/03/24 14:21:52;;;;;;;10.15;2.17;;;;;;;;;;5111379;28;20216;-76
2023/03/24 14:24:26;;;;;;;10.52;2.53;;;;;;;;;;5111338;28;20221;-76
2023/03/24 14:26:53;;;;;;;15.10;2.35;;;;;;;;;;5110191;28;20194;-77
2023/03/24 14:29:40;;;;;;;10.18;2.35;;;;;;;;;;5110702;27;20741;-76
2023/03/24 14:32:07;;;;;;;12.27;2.08;;;;;;;;;;5105735;28;20666;-76
2023/03/24 14:34:36;;;;;;;8.97;2.03;;;;;;;;;;5109621;28;20966;-76
2023/03/24 14:37:06;;;;;;;7.03;1.60;;;;;;;;;;5108299;28;20690;-76
2023/03/24 14:39:37;;;;;;;7.77;1.70;;;;;;;;;;5094459;28;20203;-77
2023/03/24 14:42:19;;;;;;;10.63;1.70;;;;;;;;;;5089988;28;20203;-77
2023/03/24 14:44:55;;;;;;;4.27;1.03;;;;;;;;;;5096882;28;21007;-77
2023/03/24 14:47:24;;;;;;;4.80;1.13;;;;;;;;;;5109884;28;20225;-77
2023/03/24 14:49:52;;;;;;;4.20;0.83;;;;;;;;;;5110818;28;20225;-78